Time;durP1;ratioP1;P1;durP2;ratioP2;P2;SDS_P1;SDS_P2;PMS_P1;PMS_P2;Temp;Humidity;BMP_temperature;BMP_pressure;BME280_temperature;BME280_humidity;BME280_pressure;Samples;Min_cycle;Max_cycle;Signal;HPM_P1;HPM_P2
2022/06/23 00:00:48;;;;;;;5.47;3.60;;;;;;;16.27;62.08;100123.22;5101799;27;20462;-59
2022/06/23 00:03:19;;;;;;;6.13;4.00;;;;;;;16.24;62.58;100117.34;5102292;28;20447;-58
2022/06/23 00:05:54;;;;;;;6.03;3.53;;;;;;;16.19;62.73;100113.31;5081094;28;20480;-59
2022/06/23 00:08:20;;;;;;;4.20;3.50;;;;;;;16.12;63.11;100119.63;5082559;28;20892;-60
2022/06/23 00:10:52;;;;;;;5.17;3.67;;;;;;;16.09;63.15;100120.84;5081396;27;20475;-59
2022/06/23 00:13:23;;;;;;;6.00;4.47;;;;;;;16.03;63.36;100118.00;5082275;28;20448;-59
2022/06/23 00:15:52;;;;;;;9.23;4.00;;;;;;;15.95;64.23;100116.19;5082327;27;20562;-59
2022/06/23 00:18:20;;;;;;;4.87;4.10;;;;;;;15.83;64.76;100110.38;5082050;28;20440;-59
2022/06/23 00:20:51;;;;;;;6.10;3.90;;;;;;;15.81;64.86;100118.66;5087151;28;20995;-59
2022/06/23 00:23:20;;;;;;;7.00;4.20;;;;;;;15.69;66.16;100113.81;5102570;28;20482;-60
2022/06/23 00:25:50;;;;;;;9.27;5.20;;;;;;;15.70;65.82;100124.41;5101263;28;20905;-58
2022/06/23 00:28:22;;;;;;;7.43;4.70;;;;;;;15.69;66.01;100111.94;5096932;28;20472;-59
2022/06/23 00:30:53;;;;;;;7.43;5.63;;;;;;;15.64;66.42;100122.44;5089395;27;20471;-59
2022/06/23 00:33:22;;;;;;;6.60;4.70;;;;;;;15.69;66.25;100120.03;5099388;28;20451;-59
2022/06/23 00:35:51;;;;;;;7.60;5.10;;;;;;;15.66;66.73;100100.66;5086751;28;20533;-59
2022/06/23 00:38:25;;;;;;;5.63;4.23;;;;;;;15.67;66.59;100107.75;5102697;28;20457;-60
2022/06/23 00:40:52;;;;;;;5.70;4.70;;;;;;;15.63;66.75;100110.78;5101291;28;20958;-60
2022/06/23 00:43:19;;;;;;;7.07;4.90;;;;;;;15.62;66.95;100098.34;5091156;28;20475;-60
2022/06/23 00:45:50;;;;;;;8.20;4.20;;;;;;;15.58;66.94;100102.41;5094435;27;20490;-59
2022/06/23 00:48:20;;;;;;;8.03;4.50;;;;;;;15.54;67.33;100100.25;5091626;28;20495;-60
2022/06/23 00:50:50;;;;;;;6.77;5.00;;;;;;;15.49;67.24;100102.63;5086373;28;20534;-59
2022/06/23 00:53:22;;;;;;;8.20;5.27;;;;;;;15.39;67.88;100097.47;5100948;28;20486;-60
2022/06/23 00:55:57;;;;;;;6.80;5.00;;;;;;;15.30;68.27;100093.13;5100604;28;20479;-60
2022/06/23 00:58:29;;;;;;;6.67;4.70;;;;;;;15.31;68.60;100090.25;5091131;28;20439;-59
2022/06/23 01:00:59;;;;;;;6.37;5.73;;;;;;;15.24;68.69;100095.50;5093215;27;20470;-59
2022/06/23 01:03:29;;;;;;;9.80;5.77;;;;;;;15.21;69.11;100101.25;5081715;28;20486;-59
2022/06/23 01:06:05;;;;;;;7.27;5.30;;;;;;;15.15;69.60;100099.22;5087461;28;20513;-59
2022/06/23 01:08:36;;;;;;;6.57;4.63;;;;;;;15.12;69.95;100099.59;5101785;28;20468;-59
2022/06/23 01:11:07;;;;;;;7.50;5.43;;;;;;;15.15;69.77;100095.69;5100478;28;20475;-59
2022/06/23 01:13:38;;;;;;;5.90;5.20;;;;;;;15.18;70.04;100112.34;5101575;28;20478;-59
2022/06/23 01:16:10;;;;;;;5.70;5.10;;;;;;;15.17;69.69;100109.84;5098482;28;20510;-59
2022/06/23 01:18:39;;;;;;;5.93;5.33;;;;;;;15.21;69.75;100103.09;5088636;28;20508;-58
2022/06/23 01:21:09;;;;;;;5.87;5.30;;;;;;;15.16;69.44;100113.56;5098563;27;20779;-58
2022/06/23 01:23:47;;;;;;;6.27;4.60;;;;;;;15.13;69.58;100101.25;5099855;28;20505;-58
2022/06/23 01:26:32;;;;;;;6.10;5.10;;;;;;;15.06;70.29;100100.28;5099290;28;20471;-58
2022/06/23 01:29:03;;;;;;;6.67;5.50;;;;;;;15.00;70.50;100087.53;5101396;28;20473;-59
2022/06/23 01:31:39;;;;;;;9.63;5.80;;;;;;;14.96;70.41;100081.63;5100395;28;20467;-58
2022/06/23 01:34:10;;;;;;;7.67;5.50;;;;;;;14.93;70.79;100075.75;5100850;28;20474;-59
2022/06/23 01:36:39;;;;;;;6.83;5.33;;;;;;;14.89;70.12;100080.66;5099384;28;20474;-58
2022/06/23 01:39:12;;;;;;;9.30;5.13;;;;;;;14.80;70.25;100079.00;5085662;28;21013;-59
2022/06/23 01:41:43;;;;;;;9.10;6.33;;;;;;;14.71;70.89;100080.88;5091137;27;20478;-59
2022/06/23 01:44:26;;;;;;;7.07;5.67;;;;;;;14.65;70.72;100081.53;5081212;28;20440;-58
2022/06/23 01:46:55;;;;;;;11.07;5.13;;;;;;;14.53;71.48;100085.56;5093863;28;20479;-59
2022/06/23 01:49:27;;;;;;;5.80;5.20;;;;;;;14.37;72.83;100081.06;5100617;28;20439;-59
2022/06/23 01:51:55;;;;;;;12.80;5.60;;;;;;;14.37;72.98;100081.06;5099822;28;20487;-58
2022/06/23 01:54:26;;;;;;;8.50;5.50;;;;;;;14.40;73.09;100080.72;5099162;28;20594;-60
2022/06/23 01:56:58;;;;;;;8.97;5.50;;;;;;;14.43;72.68;100069.63;5095368;27;20479;-59
2022/06/23 01:59:34;;;;;;;6.70;5.27;;;;;;;14.44;72.75;100080.22;5093615;28;20460;-58
2022/06/23 02:02:11;;;;;;;5.57;5.07;;;;;;;14.47;72.77;100070.97;5095413;28;20956;-59
2022/06/23 02:04:43;;;;;;;6.07;5.20;;;;;;;14.43;72.87;100066.94;5099303;28;20443;-59
2022/06/23 02:07:15;;;;;;;5.93;5.30;;;;;;;14.40;72.34;100080.72;5100168;28;20513;-58
2022/06/23 02:09:44;;;;;;;5.80;5.23;;;;;;;14.28;72.75;100072.97;5100182;28;20451;-59
2022/06/23 02:12:18;;;;;;;8.67;5.50;;;;;;;14.37;72.71;100071.13;5099974;28;20487;-58
2022/06/23 02:14:57;;;;;;;5.23;4.73;;;;;;;14.28;73.17;100067.59;5100286;28;20446;-59
2022/06/23 02:17:34;;;;;;;13.17;5.90;;;;;;;14.21;73.39;100073.84;5099075;28;20554;-59
2022/06/23 02:20:05;;;;;;;8.93;6.03;;;;;;;14.16;73.36;100079.72;5099334;28;20455;-59
2022/06/23 02:22:34;;;;;;;6.67;5.40;;;;;;;14.18;73.50;100075.00;5099811;28;20455;-58
2022/06/23 02:25:11;;;;;;;6.43;5.03;;;;;;;14.17;73.63;100076.03;5099338;28;20522;-58
2022/06/23 02:27:42;;;;;;;6.03;5.43;;;;;;;14.17;73.61;100080.56;5099889;28;20493;-59
2022/06/23 02:30:16;;;;;;;6.53;5.40;;;;;;;14.26;73.28;100077.69;5099761;28;20459;-59
2022/06/23 02:32:57;;;;;;;10.03;6.30;;;;;;;14.32;72.93;100077.03;5100151;28;20455;-59
2022/06/23 02:35:28;;;;;;;7.83;6.00;;;;;;;14.21;73.03;100077.34;5098942;28;20485;-58
2022/06/23 02:37:58;;;;;;;7.13;6.40;;;;;;;14.21;73.15;100073.84;5099663;28;20475;-58
2022/06/23 02:40:33;;;;;;;8.33;6.10;;;;;;;14.15;73.75;100082.56;5099447;28;20428;-59
2022/06/23 02:43:04;;;;;;;7.03;5.90;;;;;;;14.04;74.35;100087.25;5099562;28;20529;-58
2022/06/23 02:46:01;;;;;;;10.00;5.80;;;;;;;14.01;73.86;100094.81;5098359;28;20494;-59
2022/06/23 02:48:46;;;;;;;8.80;6.93;;;;;;;14.02;73.88;100093.81;5100259;28;20440;-58
2022/06/23 02:51:27;;;;;;;7.00;6.10;;;;;;;14.00;73.56;100096.69;5098635;28;20505;-60
2022/06/23 02:54:10;;;;;;;10.20;6.10;;;;;;;13.94;73.85;100092.00;5084162;28;21010;-59
2022/06/23 02:56:48;;;;;;;7.23;6.23;;;;;;;13.87;74.25;100089.13;5091517;28;20622;-59
2022/06/23 02:59:18;;;;;;;6.97;6.27;;;;;;;13.87;74.17;100080.19;5099710;28;20471;-59
2022/06/23 03:01:51;;;;;;;10.80;7.67;;;;;;;13.96;74.32;100083.72;5097821;28;20513;-59
2022/06/23 03:04:23;;;;;;;11.80;7.00;;;;;;;13.99;74.29;100088.78;5099082;28;20511;-59
2022/06/23 03:06:59;;;;;;;7.40;6.57;;;;;;;14.03;73.53;100093.66;5098614;28;20478;-59
2022/06/23 03:09:30;;;;;;;7.80;6.20;;;;;;;14.06;73.32;100089.78;5099611;28;20443;-59
2022/06/23 03:12:01;;;;;;;7.60;5.80;;;;;;;14.06;73.44;100090.66;5084921;28;20476;-60
2022/06/23 03:14:37;;;;;;;7.07;6.07;;;;;;;14.05;73.41;100096.19;5080450;28;20697;-59
2022/06/23 03:17:14;;;;;;;7.40;6.70;;;;;;;14.10;73.23;100096.53;5096334;27;20739;-60
2022/06/23 03:19:44;;;;;;;7.60;6.37;;;;;;;14.09;73.24;100097.53;5102203;28;20462;-59
2022/06/23 03:22:18;;;;;;;8.63;6.70;;;;;;;14.12;72.91;100098.03;5101458;27;21019;-59
2022/06/23 03:24:51;;;;;;;8.33;6.63;;;;;;;14.87;71.59;100096.97;5063363;28;20867;-60
2022/06/23 03:27:23;;;;;;;9.13;6.10;;;;;;;16.43;65.65;100102.53;5102744;27;20478;-59
2022/06/23 03:29:54;;;;;;;7.63;6.83;;;;;;;17.66;61.08;100106.53;5103973;28;20442;-58
2022/06/23 03:32:32;;;;;;;7.13;6.37;;;;;;;18.66;57.36;100099.38;5101531;28;20520;-58
2022/06/23 03:35:06;;;;;;;7.60;6.20;;;;;;;18.84;55.57;100100.81;5102578;28;20532;-58
2022/06/23 03:37:42;;;;;;;7.00;6.30;;;;;;;19.10;54.24;100097.41;5082665;28;20528;-59
2022/06/23 03:43:09;;;;;;;6.57;5.53;;;;;;;21.08;48.41;100107.16;5102762;28;20462;-59
2022/06/23 03:45:39;;;;;;;6.10;5.00;;;;;;;21.65;46.86;100105.50;5101565;28;20462;-59
2022/06/23 03:48:12;;;;;;;6.50;4.60;;;;;;;22.12;45.57;100099.78;5085905;28;20432;-59
2022/06/23 03:50:45;;;;;;;6.70;5.80;;;;;;;22.74;44.14;100100.75;5086428;28;20487;-58
2022/06/23 03:53:16;;;;;;;6.00;4.83;;;;;;;23.08;43.18;100103.16;5102890;28;20484;-59
2022/06/23 03:55:48;;;;;;;5.70;5.10;;;;;;;22.48;43.76;100101.81;5102295;28;20500;-60
2022/06/23 03:58:19;;;;;;;7.30;4.70;;;;;;;23.45;42.13;100098.53;5102713;28;20495;-58
2022/06/23 04:00:55;;;;;;;5.30;4.77;;;;;;;23.72;41.06;100091.88;5102028;27;20467;-59
2022/06/23 04:03:26;;;;;;;5.80;4.57;;;;;;;23.93;40.76;100101.47;5087068;28;20438;-59
2022/06/23 04:06:16;;;;;;;5.17;4.67;;;;;;;23.10;42.22;100101.03;5101991;27;20502;-59
2022/06/23 04:08:50;;;;;;;7.40;5.20;;;;;;;24.65;39.44;100095.94;5101447;28;20503;-58
2022/06/23 04:14:10;;;;;;;7.53;5.03;;;;;;;25.40;37.66;100101.69;5094780;28;20476;-59
2022/06/23 04:16:38;;;;;;;12.70;5.13;;;;;;;25.41;37.38;100104.19;5081164;27;20523;-59
2022/06/23 04:19:12;;;;;;;17.40;5.10;;;;;;;25.63;37.28;100106.28;5082541;28;20460;-59
2022/06/23 04:21:44;;;;;;;13.03;4.80;;;;;;;25.35;37.92;100103.25;5100152;27;20512;-59
2022/06/23 04:24:15;;;;;;;8.00;4.87;;;;;;;25.68;37.46;100107.19;5095858;28;20443;-58
2022/06/23 04:26:44;;;;;;;6.33;4.80;;;;;;;25.67;37.18;100112.91;5100610;28;20541;-59
2022/06/23 04:29:17;;;;;;;5.07;4.10;;;;;;;23.74;41.25;100111.59;5103126;28;20447;-59
2022/06/23 04:31:49;;;;;;;10.20;4.20;;;;;;;23.59;41.82;100106.53;5102063;28;21076;-59
2022/06/23 04:34:24;;;;;;;5.93;4.87;;;;;;;25.14;39.13;100110.16;5102442;28;20482;-59
2022/06/23 04:36:51;;;;;;;5.10;4.43;;;;;;;24.90;39.44;100114.84;5105791;28;20498;-58
2022/06/23 04:39:22;;;;;;;8.93;5.30;;;;;;;24.10;40.67;100113.41;5113464;28;21084;-58
2022/06/23 04:41:52;;;;;;;12.40;5.27;;;;;;;23.63;42.32;100108.56;5097796;28;20502;-58
2022/06/23 04:44:21;;;;;;;5.33;4.53;;;;;;;24.37;41.30;100116.56;5100969;28;20477;-58
2022/06/23 04:46:50;;;;;;;5.50;4.10;;;;;;;24.18;41.44;100114.97;5099651;27;20878;-58
2022/06/23 04:49:22;;;;;;;4.77;4.27;;;;;;;23.99;41.48;100109.59;5081694;28;20447;-57
2022/06/23 04:51:53;;;;;;;5.50;5.00;;;;;;;24.22;40.75;100119.72;5098686;27;20505;-57
2022/06/23 04:54:21;;;;;;;7.27;5.00;;;;;;;24.21;40.37;100103.56;5097533;28;20456;-57
2022/06/23 04:56:50;;;;;;;4.93;4.50;;;;;;;24.12;40.33;100110.44;5083986;27;20528;-57
2022/06/23 04:59:25;;;;;;;6.03;4.93;;;;;;;23.78;40.89;100107.31;5081004;28;20441;-57
2022/06/23 05:01:53;;;;;;;5.70;5.20;;;;;;;24.37;40.22;100116.56;5095102;28;20484;-57
2022/06/23 05:04:26;;;;;;;6.10;5.10;;;;;;;24.35;38.88;100109.66;5100571;28;20496;-57
2022/06/23 05:06:55;;;;;;;4.60;4.20;;;;;;;24.73;39.10;100117.44;5099929;28;20467;-57
2022/06/23 05:09:24;;;;;;;9.40;5.27;;;;;;;24.18;37.64;100123.16;5101008;28;20452;-57
2022/06/23 05:11:53;;;;;;;5.10;4.60;;;;;;;23.20;39.54;100116.88;5085669;28;20469;-57
2022/06/23 05:14:27;;;;;;;5.30;4.80;;;;;;;23.53;39.23;100127.38;5085608;28;20488;-58
2022/06/23 05:16:56;;;;;;;4.80;4.30;;;;;;;25.46;36.52;100119.88;5094264;27;20466;-59
2022/06/23 05:19:29;;;;;;;8.13;5.17;;;;;;;26.08;34.85;100122.75;5100308;28;20476;-57
2022/06/23 05:21:57;;;;;;;7.93;4.63;;;;;;;25.46;35.80;100128.94;5091357;27;20526;-58
2022/06/23 05:24:26;;;;;;;7.07;4.37;;;;;;;26.32;34.71;100125.38;5093359;28;20527;-58
2022/06/23 05:26:56;;;;;;;5.17;4.50;;;;;;;24.92;37.00;100120.88;5094342;28;20494;-58
2022/06/23 05:29:27;;;;;;;5.03;4.37;;;;;;;25.50;35.63;100116.44;5100537;28;20467;-58
2022/06/23 05:31:57;;;;;;;5.90;5.00;;;;;;;25.60;35.06;100134.13;5100486;28;20502;-58
2022/06/23 05:34:27;;;;;;;5.07;4.57;;;;;;;26.42;33.81;100131.03;5099772;28;20474;-58
2022/06/23 05:37:00;;;;;;;5.20;4.70;;;;;;;26.44;33.54;100122.53;5099522;27;20463;-58
2022/06/23 05:39:31;;;;;;;4.63;4.20;;;;;;;26.63;33.03;100113.03;5099907;28;20423;-58
2022/06/23 05:42:00;;;;;;;10.13;4.47;;;;;;;26.24;34.51;100112.91;5096843;27;20470;-58
2022/06/23 05:44:40;;;;;;;6.23;4.50;;;;;;;26.56;33.62;100111.50;5080425;28;20459;-58
2022/06/23 05:47:09;;;;;;;5.43;4.10;;;;;;;26.72;34.03;100115.31;5095097;28;20470;-60
2022/06/23 05:49:40;;;;;;;8.03;3.90;;;;;;;28.02;31.41;100114.84;5099149;28;20435;-59
2022/06/23 05:52:12;;;;;;;7.60;4.03;;;;;;;27.15;31.76;100117.34;5099922;28;20459;-58
2022/06/23 05:54:42;;;;;;;4.83;4.33;;;;;;;28.73;30.16;100119.28;5100404;28;20885;-58
2022/06/23 05:57:14;;;;;;;4.07;3.43;;;;;;;29.01;30.24;100114.50;5099357;28;20513;-58
2022/06/23 05:59:54;;;;;;;4.20;3.80;;;;;;;27.39;31.73;100114.38;5100417;28;20451;-58
2022/06/23 06:02:25;;;;;;;5.43;3.67;;;;;;;26.98;32.51;100116.56;5099799;28;20549;-59
2022/06/23 06:04:55;;;;;;;4.53;3.70;;;;;;;26.95;33.06;100120.63;5099613;28;20477;-58
2022/06/23 06:07:24;;;;;;;5.37;3.30;;;;;;;27.43;32.27;100119.09;5099734;28;20500;-58
2022/06/23 06:09:51;;;;;;;4.20;3.60;;;;;;;28.03;31.09;100116.50;5100182;28;20482;-58
2022/06/23 06:12:21;;;;;;;4.57;4.00;;;;;;;28.72;30.34;100129.47;5094332;28;20507;-58
2022/06/23 06:14:54;;;;;;;5.90;3.70;;;;;;;27.41;32.03;100121.28;5079617;28;20836;-58
2022/06/23 06:17:23;;;;;;;5.03;4.03;;;;;;;27.71;31.82;100119.16;5078649;28;20503;-58
2022/06/23 06:19:50;;;;;;;3.73;3.07;;;;;;;28.73;29.73;100113.78;5078092;28;21041;-58
2022/06/23 06:22:33;;;;;;;3.43;2.97;;;;;;;28.60;30.63;100120.59;5079123;28;20499;-58
2022/06/23 06:25:02;;;;;;;7.63;2.80;;;;;;;29.29;29.40;100110.59;5079872;28;20444;-58
2022/06/23 06:27:29;;;;;;;3.40;2.77;;;;;;;29.07;28.67;100113.47;5077907;28;20533;-58
2022/06/23 06:29:56;;;;;;;7.10;2.73;;;;;;;29.27;29.72;100116.34;5079318;28;20447;-58
2022/06/23 06:32:31;;;;;;;7.23;3.57;;;;;;;29.09;30.00;100112.09;5098098;28;20482;-58
2022/06/23 06:35:03;;;;;;;3.07;2.50;;;;;;;29.06;29.37;100109.88;5098605;28;20543;-58
2022/06/23 06:37:34;;;;;;;6.57;2.47;;;;;;;28.73;29.84;100109.13;5098922;28;20547;-58
2022/06/23 06:40:04;;;;;;;4.67;3.10;;;;;;;27.36;31.75;100101.16;5086989;28;20501;-58
2022/06/23 06:42:33;;;;;;;6.30;2.70;;;;;;;27.51;31.83;100104.09;5078418;28;20480;-58
2022/06/23 06:45:04;;;;;;;4.07;3.00;;;;;;;28.10;30.20;100113.53;5078206;28;20444;-58
2022/06/23 06:47:36;;;;;;;3.30;2.57;;;;;;;29.40;28.49;100114.19;5077068;28;20479;-58
2022/06/23 06:50:07;;;;;;;3.70;2.60;;;;;;;28.60;29.95;100109.59;5078336;28;20491;-57
2022/06/23 06:52:36;;;;;;;5.13;2.30;;;;;;;27.95;31.17;100108.69;5077709;28;20487;-59
2022/06/23 06:55:07;;;;;;;5.53;3.10;;;;;;;29.09;29.78;100119.53;5078416;28;20456;-58
2022/06/23 06:57:36;;;;;;;4.23;2.17;;;;;;;29.72;28.51;100129.72;5098829;28;20491;-58
2022/06/23 07:00:08;;;;;;;5.73;2.50;;;;;;;29.04;29.87;100119.50;5099830;28;20447;-58
2022/06/23 07:02:38;;;;;;;3.30;2.43;;;;;;;29.07;29.65;100124.47;5096493;28;20471;-58
2022/06/23 07:05:11;;;;;;;6.93;2.80;;;;;;;29.87;28.47;100121.53;5081064;28;20481;-59
2022/06/23 07:07:42;;;;;;;4.13;2.80;;;;;;;30.48;27.59;100122.72;5078543;28;20464;-58
2022/06/23 07:10:17;;;;;;;7.63;2.73;;;;;;;29.74;28.16;100120.09;5078170;28;20475;-58
2022/06/23 07:12:48;;;;;;;3.77;2.73;;;;;;;30.41;28.04;100112.81;5099287;28;20976;-59
2022/06/23 07:15:23;;;;;;;5.87;2.50;;;;;;;30.64;28.53;100118.88;5098111;28;20487;-58
2022/06/23 07:17:53;;;;;;;2.90;2.23;;;;;;;30.25;28.31;100110.28;5098785;28;21476;-59
2022/06/23 07:20:22;;;;;;;8.60;3.07;;;;;;;32.04;26.28;100114.50;5098318;28;20831;-58
2022/06/23 07:22:53;;;;;;;2.93;2.20;;;;;;;30.90;26.91;100108.59;5099961;28;20436;-59
2022/06/23 07:25:21;;;;;;;4.20;2.30;;;;;;;30.67;28.05;100112.78;5097665;28;20464;-59
2022/06/23 07:27:53;;;;;;;2.40;2.00;;;;;;;31.03;26.96;100115.50;5098614;28;20446;-59
2022/06/23 07:30:22;;;;;;;2.60;2.07;;;;;;;31.64;27.11;100113.63;5099067;27;20454;-59
2022/06/23 07:32:53;;;;;;;3.80;2.17;;;;;;;32.68;24.94;100111.81;5098413;28;20985;-59
2022/06/23 07:35:27;;;;;;;4.27;2.50;;;;;;;31.40;27.13;100113.44;5098163;28;20890;-59
2022/06/23 07:38:00;;;;;;;4.77;2.00;;;;;;;32.19;26.41;100111.63;5099348;28;20909;-58
2022/06/23 07:40:28;;;;;;;3.67;2.27;;;;;;;31.84;26.91;100113.50;5097984;27;20553;-59
2022/06/23 07:42:57;;;;;;;4.43;2.60;;;;;;;32.02;26.14;100109.25;5098976;28;20915;-59
2022/06/23 07:45:27;;;;;;;2.40;2.10;;;;;;;30.60;27.85;100115.00;5097336;28;20455;-58
2022/06/23 07:47:54;;;;;;;3.40;2.00;;;;;;;32.58;25.57;100105.22;5097351;28;20472;-58
2022/06/23 07:50:21;;;;;;;4.93;2.33;;;;;;;32.71;25.55;100113.97;5090413;27;20443;-58
2022/06/23 07:52:48;;;;;;;5.23;2.43;;;;;;;32.46;25.20;100102.00;5097919;28;21079;-59
2022/06/23 07:55:20;;;;;;;4.47;2.03;;;;;;;32.84;25.08;100096.69;5097778;28;20466;-58
2022/06/23 07:57:47;;;;;;;2.50;1.77;;;;;;;33.45;24.58;100105.41;5098663;28;20467;-58
2022/06/23 08:00:14;;;;;;;5.70;2.47;;;;;;;32.71;25.88;100106.50;5098835;28;20427;-58
2022/06/23 08:02:44;;;;;;;3.93;2.20;;;;;;;34.41;24.21;100099.59;5098824;28;20439;-58
2022/06/23 08:05:14;;;;;;;4.30;2.87;;;;;;;33.37;24.59;100093.06;5101184;28;20479;-60
2022/06/23 08:07:41;;;;;;;4.13;1.90;;;;;;;33.74;24.55;100099.78;5102656;28;20774;-58
2022/06/23 08:10:09;;;;;;;3.20;2.20;;;;;;;33.37;24.83;100102.19;5101768;28;20482;-58
2022/06/23 08:12:55;;;;;;;5.90;2.37;;;;;;;33.40;24.45;100101.59;5096913;28;20478;-59
2022/06/23 08:18:20;;;;;;;2.23;1.97;;;;;;;33.99;24.20;100097.75;5102183;28;20473;-58
2022/06/23 08:20:53;;;;;;;2.50;2.20;;;;;;;33.17;25.45;100091.34;5101455;27;20494;-58
2022/06/23 08:23:21;;;;;;;3.57;2.00;;;;;;;33.80;24.44;100097.75;5102414;28;20467;-59
2022/06/23 08:25:48;;;;;;;4.57;1.90;;;;;;;34.06;23.63;100101.81;5101175;28;20701;-58
2022/06/23 08:28:17;;;;;;;5.00;2.43;;;;;;;33.71;23.53;100092.06;5101782;28;20435;-58
2022/06/23 08:30:46;;;;;;;4.57;2.20;;;;;;;34.27;24.01;100096.78;5101657;27;20883;-58
2022/06/23 08:33:14;;;;;;;4.73;1.97;;;;;;;34.04;24.59;100092.13;5101222;28;20430;-58
2022/06/23 08:35:42;;;;;;;5.67;1.87;;;;;;;34.14;24.74;100087.22;5100265;27;20458;-59
2022/06/23 08:38:12;;;;;;;5.43;2.20;;;;;;;34.01;23.53;100088.00;5102396;28;20494;-58
2022/06/23 08:40:48;;;;;;;2.77;2.10;;;;;;;32.90;25.10;100084.44;5101325;27;20894;-59
2022/06/23 08:43:20;;;;;;;6.67;2.27;;;;;;;32.93;25.46;100074.72;5102172;28;20430;-59
2022/06/23 08:45:51;;;;;;;3.33;2.27;;;;;;;33.18;25.02;100077.22;5100471;27;20497;-59
2022/06/23 08:48:23;;;;;;;3.87;2.10;;;;;;;33.44;24.71;100085.19;5101501;28;20972;-59
2022/06/23 08:50:54;;;;;;;3.87;2.40;;;;;;;34.53;24.20;100079.69;5095026;28;20467;-59
2022/06/23 08:53:27;;;;;;;2.90;1.83;;;;;;;34.20;24.28;100079.69;5089061;28;20473;-58
2022/06/23 08:55:58;;;;;;;5.23;2.00;;;;;;;34.48;23.47;100077.81;5089014;28;20472;-59
2022/06/23 08:58:31;;;;;;;3.20;1.90;;;;;;;34.50;23.89;100074.72;5098900;28;20507;-60
2022/06/23 09:01:01;;;;;;;3.37;2.03;;;;;;;35.00;23.20;100066.56;5089993;27;20467;-59
2022/06/23 09:03:36;;;;;;;3.40;2.00;;;;;;;33.80;25.19;100067.25;5080771;28;20436;-58
2022/06/23 09:06:08;;;;;;;4.60;1.90;;;;;;;35.11;23.33;100061.63;5080359;28;20535;-59
2022/06/23 09:08:43;;;;;;;2.93;2.00;;;;;;;35.04;24.33;100056.47;5080778;28;20488;-59
2022/06/23 09:11:14;;;;;;;4.27;2.03;;;;;;;35.55;22.94;100059.31;5080509;28;20471;-59
2022/06/23 09:13:53;;;;;;;6.37;1.90;;;;;;;35.07;23.07;100049.50;5080646;28;20447;-60
2022/06/23 09:16:38;;;;;;;2.30;1.70;;;;;;;35.20;23.35;100040.31;5092750;27;20591;-59
2022/06/23 09:19:34;;;;;;;3.77;2.17;;;;;;;35.54;22.98;100044.59;5092760;28;20472;-59
2022/06/23 09:22:19;;;;;;;2.70;2.10;;;;;;;34.66;23.23;100055.81;5090845;27;20467;-59
2022/06/23 09:24:54;;;;;;;3.47;1.70;;;;;;;34.70;23.31;100054.94;5090144;28;20502;-59
2022/06/23 09:27:33;;;;;;;4.00;1.90;;;;;;;35.07;23.22;100050.31;5090839;28;20492;-58
2022/06/23 09:30:04;;;;;;;2.90;2.00;;;;;;;35.67;22.29;100044.88;5100964;28;20833;-58
2022/06/23 09:32:55;;;;;;;3.87;1.73;;;;;;;35.22;22.87;100045.59;5085246;28;20472;-58
2022/06/23 09:35:47;;;;;;;7.00;2.50;;;;;;;36.28;22.12;100035.03;5078829;28;20499;-58
2022/06/23 09:38:36;;;;;;;2.33;1.93;;;;;;;35.66;22.26;100032.94;5080038;28;20432;-59
2022/06/23 09:41:10;;;;;;;3.00;1.97;;;;;;;35.42;22.21;100027.66;5080235;28;20471;-59
2022/06/23 09:44:03;;;;;;;3.93;1.50;;;;;;;35.41;21.49;100037.91;5080826;28;20443;-58
2022/06/23 09:46:53;;;;;;;4.70;1.90;;;;;;;36.73;19.17;100034.16;5083686;28;20492;-59
2022/06/23 09:49:41;;;;;;;4.63;1.87;;;;;;;35.90;19.85;100032.66;5095470;28;20443;-59
2022/06/23 09:52:51;;;;;;;1.77;1.50;;;;;;;35.01;19.45;100039.59;5092630;28;20463;-58
2022/06/23 09:55:29;;;;;;;4.60;1.97;;;;;;;34.54;20.04;100034.09;5078932;28;21108;-58
2022/06/23 09:58:17;;;;;;;2.20;1.60;;;;;;;34.10;20.52;100027.94;5095877;28;20542;-58
2022/06/23 10:00:51;;;;;;;2.37;1.70;;;;;;;34.90;21.09;100030.66;5099507;27;20474;-58
2022/06/23 10:03:36;;;;;;;2.20;1.73;;;;;;;34.84;20.32;100024.41;5099733;28;20499;-58
2022/06/23 10:06:14;;;;;;;1.77;1.40;;;;;;;34.29;19.70;100016.81;5099228;27;20505;-59
2022/06/23 10:08:49;;;;;;;3.23;1.70;;;;;;;34.70;19.70;100017.97;5098185;28;20463;-59
2022/06/23 10:11:39;;;;;;;3.20;1.77;;;;;;;35.01;19.67;100011.81;5099593;28;20503;-58
2022/06/23 10:14:18;;;;;;;1.97;1.80;;;;;;;35.11;19.49;100008.84;5100169;28;20455;-59
2022/06/23 10:16:58;;;;;;;2.57;1.60;;;;;;;35.10;19.08;100011.91;5098730;27;20539;-59
2022/06/23 10:19:35;;;;;;;2.40;1.60;;;;;;;34.56;18.87;100006.03;5086025;28;20468;-59
2022/06/23 10:22:17;;;;;;;2.00;1.73;;;;;;;35.04;19.08;100014.00;5087521;28;20494;-59
2022/06/23 10:24:55;;;;;;;6.80;2.07;;;;;;;34.50;18.65;99997.81;5090427;28;20566;-59
2022/06/23 10:27:37;;;;;;;3.47;1.70;;;;;;;35.71;18.23;100005.03;5093111;28;20483;-59
2022/06/23 10:30:11;;;;;;;2.20;1.50;;;;;;;35.71;18.72;100006.94;5099408;28;20584;-59
2022/06/23 10:33:12;;;;;;;2.23;1.70;;;;;;;34.09;19.04;100012.41;5091526;28;20452;-59
2022/06/23 10:35:48;;;;;;;2.30;1.60;;;;;;;34.36;18.49;100010.03;5042116;28;20895;-59
2022/06/23 10:38:27;;;;;;;3.03;1.80;;;;;;;34.66;19.02;100005.84;5076341;28;20423;-58
2022/06/23 10:41:18;;;;;;;1.73;1.60;;;;;;;34.65;18.32;99995.84;5076521;28;20475;-58
2022/06/23 10:43:59;;;;;;;3.93;1.87;;;;;;;34.10;19.07;99999.38;5073730;28;20472;-58
2022/06/23 10:46:32;;;;;;;3.30;1.47;;;;;;;33.94;18.51;99998.81;5085987;28;20681;-58
2022/06/23 10:49:17;;;;;;;2.07;1.60;;;;;;;33.55;19.10;99994.41;5075819;28;20816;-59
2022/06/23 10:52:20;;;;;;;2.00;1.57;;;;;;;34.13;19.77;99982.09;5083915;28;20485;-59
2022/06/23 10:55:23;;;;;;;2.10;1.60;;;;;;;34.28;18.40;99992.13;5096227;28;20491;-58
2022/06/23 10:58:21;;;;;;;2.73;1.50;;;;;;;34.02;18.92;99987.00;5051870;28;20460;-58
2022/06/23 11:00:56;;;;;;;4.83;1.60;;;;;;;34.12;18.90;99978.50;5076321;28;20820;-59
2022/06/23 11:03:48;;;;;;;3.37;1.80;;;;;;;33.77;18.82;99979.97;5075083;28;20494;-59
2022/06/23 11:06:28;;;;;;;2.10;1.70;;;;;;;32.66;19.28;99979.25;5068834;28;20525;-59
2022/06/23 11:09:22;;;;;;;2.60;1.97;;;;;;;32.95;19.86;99964.47;5072336;28;20459;-58
2022/06/23 11:11:59;;;;;;;4.60;1.60;;;;;;;33.43;19.18;99975.47;5074413;28;20539;-58
2022/06/23 11:14:48;;;;;;;2.50;1.90;;;;;;;33.92;19.62;99967.75;5098795;28;20443;-59
2022/06/23 11:17:24;;;;;;;2.80;1.87;;;;;;;34.08;19.95;99973.88;5081650;28;20464;-59
2022/06/23 11:20:05;;;;;;;3.60;2.17;;;;;;;33.65;20.34;99969.31;5090014;28;20501;-59
2022/06/23 11:22:43;;;;;;;2.83;1.60;;;;;;;33.63;19.17;99965.16;5097721;28;20481;-60
2022/06/23 11:25:24;;;;;;;2.23;1.50;;;;;;;33.12;19.84;99966.72;5096493;28;20473;-59
2022/06/23 11:27:56;;;;;;;2.27;1.80;;;;;;;33.38;21.20;99973.59;5097657;28;20462;-58
2022/06/23 11:30:29;;;;;;;3.00;1.77;;;;;;;33.71;20.18;99954.25;5095951;28;20465;-60
2022/06/23 11:33:19;;;;;;;3.20;1.80;;;;;;;34.01;19.94;99957.63;5098493;28;20994;-59
2022/06/23 11:35:57;;;;;;;2.70;1.93;;;;;;;33.18;20.42;99960.03;5097462;28;20523;-59
2022/06/23 11:38:43;;;;;;;2.07;1.60;;;;;;;33.34;20.97;99944.00;5101327;28;20951;-59
2022/06/23 11:41:23;;;;;;;2.77;1.90;;;;;;;32.96;20.93;99955.03;5102515;28;20532;-59
2022/06/23 11:44:05;;;;;;;2.40;2.00;;;;;;;33.08;21.40;99947.13;5102748;28;20446;-60
2022/06/23 11:46:35;;;;;;;2.13;1.93;;;;;;;33.43;21.07;99960.78;5100449;28;21050;-58
2022/06/23 11:49:17;;;;;;;2.67;2.00;;;;;;;32.92;21.07;99946.50;5102958;28;20451;-58
2022/06/23 11:51:56;;;;;;;2.70;1.80;;;;;;;33.18;20.96;99952.53;5101253;28;20511;-58
2022/06/23 11:54:40;;;;;;;3.20;1.90;;;;;;;33.33;20.55;99957.06;5102246;28;20508;-58
2022/06/23 11:57:19;;;;;;;4.40;1.83;;;;;;;32.74;20.99;99939.84;5102603;28;21302;-59
2022/06/23 11:59:55;;;;;;;2.77;2.20;;;;;;;32.25;21.46;99932.63;5102739;28;20499;-58
2022/06/23 12:02:22;;;;;;;4.70;2.20;;;;;;;32.44;21.94;99939.03;5101439;28;20502;-59
2022/06/23 12:05:00;;;;;;;2.53;2.03;;;;;;;31.67;21.32;99942.53;5101508;28;20442;-58
2022/06/23 12:07:41;;;;;;;2.00;1.80;;;;;;;31.53;22.55;99934.06;5101442;28;20475;-58